SAVY/PMY METAR and TAF weather

Enter ICAO airport designator
Station Type Date Time Source
SAVY METAR 2022/01/11 22:15 UTC NOAA

SAVY 112215Z 05014KT 8000 FU NSC 21/11 Q1011


Station Type Date Time Source
SAVY Decoded METAR 2022/01/11 22:15 UTC NOAA

Puerto Madryn, CHT, Argentina (SAVY) 42-45-33S 065-06-10W
Jan 11, 2022 - 05:15 PM EST / 2022.01.11 2215 UTC
Wind: from the NE (050 degrees) at 16 MPH (14 KT):0
Visibility: 4 mile(s):0
Weather: smoke
Temperature: 69 F (21 C)
Dew Point: 51 F (11 C)
Relative Humidity: 52%
Pressure (altimeter): 29.85 in. Hg (1011 hPa)
ob: SAVY 112215Z 05014KT 8000 FU NSC 21/11 Q1011
cycle: 22

Station Type Date Time Source
SAVY TAF UTC NOAA

Error!

Example: see airport list